Luverne, ND

3:32 AM CDT on June 02, 2015 (GMT -0500)
Valley City | | Change Station
CLOSE
Current Station
Airport
Location: Valley City,
Elevation: 1401 ft
Nearby Weather Stations

Elev 1401 ft 46.94 °N, 98.02 °W | Updated 17 minutes ago

Rain
Rain
64 °F
Feels Like 64 °F
N
12
Wind Variable Wind from SSE
Gusts 17 mph

Today
High -- | Low -- °F
--% Chance of Precip.
Yesterday
High -- | Low -- °F
Precip. -- in
5:38 AM 9:20 PM
Full, 100% visible
Pressure 29.83 in
Visibility 10.0 miles
Clouds Scattered Clouds 6000 ft
Mostly Cloudy 7500 ft
Overcast 11000 ft
Dew Point 54 °F
Humidity 68%
Rainfall 0.00 in
Snow Depth Not available.
UV 0 out of 12
Pollen 9.30 out of 12
Air Quality Not available.
Flu Activity Sporadic
METAR KBAC 020815Z AUTO 16010G15KT 10SM SCT060 BKN075 OVC110 18/12 A2983 RMK AO2

More Conditions Fewer Conditions

Pressure 29.83 in
Visibility 10.0 miles
Clouds Scattered Clouds 6000 ft
Mostly Cloudy 7500 ft
Overcast 11000 ft
Dew Point 54 °F
Humidity 68%
Rainfall 0.00 in
Snow Depth Not available.
UV 0 out of 12
Pollen 9.30 out of 12
Air Quality Not available.
Flu Activity Sporadic
METAR KBAC 020815Z AUTO 16010G15KT 10SM SCT060 BKN075 OVC110 18/12 A2983 RMK AO2

More Conditions Fewer Conditions

10-Day Weather Forecast

Almanac

Astronomy

Jun. 02, 2015 Rise Set
Actual Time
Civil Twilight
Nautical Twilight
Astronomical Twilight
Moon
Length of Visible Light
Length of Day
Tomorrow will be .
, % of the Moon is Illuminated

Today's Extremes

State Highs State Lows

Community

WunderPhotos

Upload Photos

1,825,900 photos uploaded!

WunderBlogs® & News

Nearby

Air Quality

  Air Quality AQ Index Pollutant
Not available.

Snow Depth

Station Depth Elevation

Earthquake Activity

City Distance Mag. Time & Date
Minimum magnitude displayed is 2.5.

Coastal Water Temperatures

Place Temperature

Stations

Nearby Weather Stations

Station Location Temp. Windchill Dew Point Humidity Wind Precip. Elev Updated Type